sensor_id;sensor_type;location;lat;lon;timestamp;P1;durP1;ratioP1;P2;durP2;ratioP2
23519;SDS011;11936;50.820;4.336;2023-07-31T00:01:27;23.02;;;6.32;;
23519;SDS011;11936;50.820;4.336;2023-07-31T00:03:53;15.73;;;5.45;;
23519;SDS011;11936;50.820;4.336;2023-07-31T00:06:18;14.10;;;5.18;;
23519;SDS011;11936;50.820;4.336;2023-07-31T00:08:44;11.27;;;4.80;;
23519;SDS011;11936;50.820;4.336;2023-07-31T00:11:10;17.23;;;5.40;;
23519;SDS011;11936;50.820;4.336;2023-07-31T00:13:35;15.60;;;5.60;;
23519;SDS011;11936;50.820;4.336;2023-07-31T00:16:01;17.75;;;5.28;;
23519;SDS011;11936;50.820;4.336;2023-07-31T00:18:26;18.80;;;5.32;;
23519;SDS011;11936;50.820;4.336;2023-07-31T00:20:52;20.55;;;6.20;;
23519;SDS011;11936;50.820;4.336;2023-07-31T00:23:17;18.95;;;5.53;;
23519;SDS011;11936;50.820;4.336;2023-07-31T00:25:43;14.13;;;6.07;;
23519;SDS011;11936;50.820;4.336;2023-07-31T00:28:08;15.85;;;6.05;;
23519;SDS011;11936;50.820;4.336;2023-07-31T00:30:35;14.68;;;4.97;;
23519;SDS011;11936;50.820;4.336;2023-07-31T00:33:00;15.65;;;4.93;;
23519;SDS011;11936;50.820;4.336;2023-07-31T00:35:26;11.77;;;5.00;;
23519;SDS011;11936;50.820;4.336;2023-07-31T00:37:51;14.68;;;5.28;;
23519;SDS011;11936;50.820;4.336;2023-07-31T00:40:17;15.05;;;5.50;;
23519;SDS011;11936;50.820;4.336;2023-07-31T00:42:42;11.35;;;4.97;;
23519;SDS011;11936;50.820;4.336;2023-07-31T00:45:08;13.00;;;6.05;;
23519;SDS011;11936;50.820;4.336;2023-07-31T00:47:34;11.50;;;5.07;;
23519;SDS011;11936;50.820;4.336;2023-07-31T00:50:00;14.77;;;5.03;;
23519;SDS011;11936;50.820;4.336;2023-07-31T00:52:25;19.35;;;6.22;;
23519;SDS011;11936;50.820;4.336;2023-07-31T00:54:51;12.27;;;4.75;;
23519;SDS011;11936;50.820;4.336;2023-07-31T00:57:17;16.33;;;5.15;;
23519;SDS011;11936;50.820;4.336;2023-07-31T00:59:42;12.40;;;5.05;;
23519;SDS011;11936;50.820;4.336;2023-07-31T01:02:08;13.32;;;5.45;;
23519;SDS011;11936;50.820;4.336;2023-07-31T01:04:33;14.60;;;5.25;;
23519;SDS011;11936;50.820;4.336;2023-07-31T01:07:09;14.52;;;5.90;;
23519;SDS011;11936;50.820;4.336;2023-07-31T01:12:29;8.23;;;4.30;;
23519;SDS011;11936;50.820;4.336;2023-07-31T01:17:31;15.48;;;5.10;;
23519;SDS011;11936;50.820;4.336;2023-07-31T01:19:59;17.85;;;5.55;;
23519;SDS011;11936;50.820;4.336;2023-07-31T01:25:28;16.63;;;6.05;;
23519;SDS011;11936;50.820;4.336;2023-07-31T01:28:13;12.07;;;5.80;;
23519;SDS011;11936;50.820;4.336;2023-07-31T01:30:43;13.63;;;5.05;;
23519;SDS011;11936;50.820;4.336;2023-07-31T01:33:11;10.43;;;4.88;;
23519;SDS011;11936;50.820;4.336;2023-07-31T01:35:37;16.95;;;5.13;;
23519;SDS011;11936;50.820;4.336;2023-07-31T01:38:04;11.85;;;4.82;;
23519;SDS011;11936;50.820;4.336;2023-07-31T01:40:30;14.65;;;5.32;;
23519;SDS011;11936;50.820;4.336;2023-07-31T01:42:55;13.57;;;5.53;;
23519;SDS011;11936;50.820;4.336;2023-07-31T01:45:21;15.40;;;5.45;;
23519;SDS011;11936;50.820;4.336;2023-07-31T01:47:47;13.10;;;5.47;;
23519;SDS011;11936;50.820;4.336;2023-07-31T01:50:12;14.57;;;5.28;;
23519;SDS011;11936;50.820;4.336;2023-07-31T01:52:38;15.10;;;6.00;;
23519;SDS011;11936;50.820;4.336;2023-07-31T01:55:04;10.68;;;5.13;;
23519;SDS011;11936;50.820;4.336;2023-07-31T01:57:29;16.42;;;5.30;;
23519;SDS011;11936;50.820;4.336;2023-07-31T01:59:55;14.65;;;5.32;;
23519;SDS011;11936;50.820;4.336;2023-07-31T02:02:21;13.98;;;5.55;;
23519;SDS011;11936;50.820;4.336;2023-07-31T02:04:48;10.15;;;5.45;;
23519;SDS011;11936;50.820;4.336;2023-07-31T02:07:13;15.40;;;5.47;;
23519;SDS011;11936;50.820;4.336;2023-07-31T02:09:39;9.48;;;5.82;;
23519;SDS011;11936;50.820;4.336;2023-07-31T02:12:05;14.15;;;5.50;;
23519;SDS011;11936;50.820;4.336;2023-07-31T02:14:33;12.75;;;5.72;;
23519;SDS011;11936;50.820;4.336;2023-07-31T02:16:59;11.13;;;5.47;;
23519;SDS011;11936;50.820;4.336;2023-07-31T02:19:25;14.15;;;6.40;;
23519;SDS011;11936;50.820;4.336;2023-07-31T02:21:50;11.80;;;5.15;;
23519;SDS011;11936;50.820;4.336;2023-07-31T02:24:16;13.35;;;5.63;;
23519;SDS011;11936;50.820;4.336;2023-07-31T02:26:41;15.57;;;5.40;;
23519;SDS011;11936;50.820;4.336;2023-07-31T02:29:07;10.02;;;5.50;;
23519;SDS011;11936;50.820;4.336;2023-07-31T02:31:33;12.98;;;5.32;;
23519;SDS011;11936;50.820;4.336;2023-07-31T02:33:59;10.32;;;5.25;;
23519;SDS011;11936;50.820;4.336;2023-07-31T02:36:24;10.63;;;4.97;;
23519;SDS011;11936;50.820;4.336;2023-07-31T02:38:50;9.20;;;5.25;;
23519;SDS011;11936;50.820;4.336;2023-07-31T02:41:15;8.27;;;4.60;;
23519;SDS011;11936;50.820;4.336;2023-07-31T02:43:41;7.63;;;4.47;;
23519;SDS011;11936;50.820;4.336;2023-07-31T02:46:07;7.20;;;4.60;;
23519;SDS011;11936;50.820;4.336;2023-07-31T02:48:32;7.53;;;4.22;;
23519;SDS011;11936;50.820;4.336;2023-07-31T02:50:58;8.73;;;5.00;;
23519;SDS011;11936;50.820;4.336;2023-07-31T02:53:23;7.90;;;4.32;;
23519;SDS011;11936;50.820;4.336;2023-07-31T02:55:49;9.52;;;3.47;;
23519;SDS011;11936;50.820;4.336;2023-07-31T02:58:15;6.72;;;3.83;;
23519;SDS011;11936;50.820;4.336;2023-07-31T03:00:43;8.80;;;4.20;;
23519;SDS011;11936;50.820;4.336;2023-07-31T03:03:09;9.38;;;4.07;;
23519;SDS011;11936;50.820;4.336;2023-07-31T03:05:35;6.55;;;3.80;;
23519;SDS011;11936;50.820;4.336;2023-07-31T03:08:01;9.30;;;4.53;;
23519;SDS011;11936;50.820;4.336;2023-07-31T03:10:26;7.28;;;4.32;;
23519;SDS011;11936;50.820;4.336;2023-07-31T03:12:52;8.95;;;4.15;;
23519;SDS011;11936;50.820;4.336;2023-07-31T03:15:17;6.22;;;3.92;;
23519;SDS011;11936;50.820;4.336;2023-07-31T03:17:43;4.57;;;3.85;;
23519;SDS011;11936;50.820;4.336;2023-07-31T03:20:09;5.53;;;3.97;;
23519;SDS011;11936;50.820;4.336;2023-07-31T03:22:35;11.00;;;3.83;;
23519;SDS011;11936;50.820;4.336;2023-07-31T03:25:01;10.48;;;4.43;;
23519;SDS011;11936;50.820;4.336;2023-07-31T03:27:27;13.15;;;4.30;;
23519;SDS011;11936;50.820;4.336;2023-07-31T03:29:53;6.63;;;4.72;;
23519;SDS011;11936;50.820;4.336;2023-07-31T03:32:19;8.98;;;4.80;;
23519;SDS011;11936;50.820;4.336;2023-07-31T03:34:44;9.80;;;4.25;;
23519;SDS011;11936;50.820;4.336;2023-07-31T03:37:10;9.63;;;4.32;;
23519;SDS011;11936;50.820;4.336;2023-07-31T03:39:35;8.13;;;4.05;;
23519;SDS011;11936;50.820;4.336;2023-07-31T03:42:01;6.55;;;4.20;;
23519;SDS011;11936;50.820;4.336;2023-07-31T03:44:27;9.35;;;4.45;;
23519;SDS011;11936;50.820;4.336;2023-07-31T03:46:53;8.40;;;4.28;;
23519;SDS011;11936;50.820;4.336;2023-07-31T03:49:18;9.07;;;4.65;;
23519;SDS011;11936;50.820;4.336;2023-07-31T03:51:44;7.43;;;4.20;;
23519;SDS011;11936;50.820;4.336;2023-07-31T03:54:09;11.38;;;4.53;;
23519;SDS011;11936;50.820;4.336;2023-07-31T03:56:35;11.23;;;5.07;;
23519;SDS011;11936;50.820;4.336;2023-07-31T03:59:01;12.23;;;4.43;;
23519;SDS011;11936;50.820;4.336;2023-07-31T04:01:26;7.03;;;4.25;;
23519;SDS011;11936;50.820;4.336;2023-07-31T04:03:52;10.25;;;4.68;;
23519;SDS011;11936;50.820;4.336;2023-07-31T04:06:17;10.13;;;4.90;;
23519;SDS011;11936;50.820;4.336;2023-07-31T04:08:43;7.47;;;4.15;;
23519;SDS011;11936;50.820;4.336;2023-07-31T04:11:10;7.00;;;3.92;;
23519;SDS011;11936;50.820;4.336;2023-07-31T04:13:36;9.82;;;4.40;;
23519;SDS011;11936;50.820;4.336;2023-07-31T04:16:02;9.75;;;4.47;;
23519;SDS011;11936;50.820;4.336;2023-07-31T04:18:28;10.02;;;5.13;;
23519;SDS011;11936;50.820;4.336;2023-07-31T04:20:55;6.80;;;4.18;;
23519;SDS011;11936;50.820;4.336;2023-07-31T04:23:23;9.90;;;4.45;;
23519;SDS011;11936;50.820;4.336;2023-07-31T04:25:49;9.75;;;4.28;;
23519;SDS011;11936;50.820;4.336;2023-07-31T04:28:14;6.38;;;3.83;;
23519;SDS011;11936;50.820;4.336;2023-07-31T04:30:40;7.18;;;3.88;;
23519;SDS011;11936;50.820;4.336;2023-07-31T04:33:06;8.60;;;3.80;;
23519;SDS011;11936;50.820;4.336;2023-07-31T04:35:31;8.93;;;4.30;;
23519;SDS011;11936;50.820;4.336;2023-07-31T04:37:57;7.50;;;4.03;;
23519;SDS011;11936;50.820;4.336;2023-07-31T04:40:22;10.45;;;4.30;;
23519;SDS011;11936;50.820;4.336;2023-07-31T04:42:48;11.40;;;4.53;;
23519;SDS011;11936;50.820;4.336;2023-07-31T04:45:14;7.25;;;3.80;;
23519;SDS011;11936;50.820;4.336;2023-07-31T04:47:42;10.85;;;4.40;;
23519;SDS011;11936;50.820;4.336;2023-07-31T04:50:08;10.88;;;3.97;;
23519;SDS011;11936;50.820;4.336;2023-07-31T04:52:34;13.18;;;4.85;;
23519;SDS011;11936;50.820;4.336;2023-07-31T04:54:59;8.02;;;4.20;;
23519;SDS011;11936;50.820;4.336;2023-07-31T04:57:25;9.55;;;4.00;;
23519;SDS011;11936;50.820;4.336;2023-07-31T04:59:50;9.20;;;4.03;;
23519;SDS011;11936;50.820;4.336;2023-07-31T05:02:16;11.63;;;4.32;;
23519;SDS011;11936;50.820;4.336;2023-07-31T05:04:42;8.82;;;4.03;;
23519;SDS011;11936;50.820;4.336;2023-07-31T05:07:07;8.80;;;4.47;;
23519;SDS011;11936;50.820;4.336;2023-07-31T05:09:33;10.60;;;4.50;;
23519;SDS011;11936;50.820;4.336;2023-07-31T05:11:58;8.25;;;3.92;;
23519;SDS011;11936;50.820;4.336;2023-07-31T05:14:25;8.13;;;4.38;;
23519;SDS011;11936;50.820;4.336;2023-07-31T05:16:51;8.10;;;4.00;;
23519;SDS011;11936;50.820;4.336;2023-07-31T05:19:17;5.68;;;3.65;;
23519;SDS011;11936;50.820;4.336;2023-07-31T05:21:42;9.35;;;3.78;;
23519;SDS011;11936;50.820;4.336;2023-07-31T05:24:08;8.35;;;4.07;;
23519;SDS011;11936;50.820;4.336;2023-07-31T05:26:34;11.85;;;4.13;;
23519;SDS011;11936;50.820;4.336;2023-07-31T05:29:00;11.50;;;4.20;;
23519;SDS011;11936;50.820;4.336;2023-07-31T05:31:26;9.45;;;4.47;;
